createdAt,value
2019-02-12T00:00:57.927Z,15.80
2019-02-12T00:02:02.446Z,20.40
2019-02-12T00:03:07.397Z,13.43
2019-02-12T00:04:12.330Z,12.55
2019-02-12T00:05:17.277Z,13.03
2019-02-12T00:06:22.477Z,14.18
2019-02-12T00:07:26.908Z,19.92
2019-02-12T00:08:32.096Z,13.43
2019-02-12T00:09:36.729Z,16.20
2019-02-12T00:10:41.747Z,19.80
2019-02-12T00:11:46.973Z,19.15
2019-02-12T00:12:52.189Z,12.03
2019-02-12T00:13:57.685Z,20.10
2019-02-12T00:15:03.157Z,14.10
2019-02-12T00:16:08.670Z,13.80
2019-02-12T00:17:13.796Z,19.10
2019-02-12T00:18:19.027Z,13.72
2019-02-12T00:19:23.890Z,26.10
2019-02-12T00:20:29.383Z,17.92
2019-02-12T00:21:34.361Z,15.35
2019-02-12T00:22:39.875Z,17.52
2019-02-12T00:23:45.397Z,18.40
2019-02-12T00:24:50.871Z,12.05
2019-02-12T00:25:55.558Z,20.43
2019-02-12T00:27:00.411Z,17.45
2019-02-12T00:28:05.063Z,14.68
2019-02-12T00:29:10.006Z,15.63
2019-02-12T00:30:14.705Z,12.60
2019-02-12T00:31:19.637Z,15.68
2019-02-12T00:32:24.429Z,18.35
2019-02-12T00:33:29.575Z,11.38
2019-02-12T00:34:34.484Z,15.38
2019-02-12T00:35:39.712Z,14.05
2019-02-12T00:36:44.359Z,14.90
2019-02-12T00:37:49.790Z,16.25
2019-02-12T00:38:54.967Z,15.48
2019-02-12T00:40:00.277Z,19.67
2019-02-12T00:41:05.217Z,20.65
2019-02-12T00:42:10.174Z,17.62
2019-02-12T00:43:15.215Z,14.00
2019-02-12T00:44:20.283Z,10.45
2019-02-12T00:45:24.924Z,14.03
2019-02-12T00:46:30.147Z,15.65
2019-02-12T00:47:35.752Z,17.55
2019-02-12T00:48:40.855Z,15.35
2019-02-12T00:49:46.208Z,17.87
2019-02-12T00:50:51.658Z,12.20
2019-02-12T00:51:56.881Z,12.55
2019-02-12T00:53:02.309Z,17.85
2019-02-12T00:54:06.998Z,17.42
2019-02-12T00:55:12.047Z,15.90
2019-02-12T00:56:17.263Z,20.50
2019-02-12T00:57:22.483Z,15.83
2019-02-12T00:58:27.363Z,16.07
2019-02-12T00:59:32.337Z,17.42
2019-02-12T01:00:37.303Z,11.90
2019-02-12T01:01:42.059Z,16.20
2019-02-12T01:02:46.980Z,15.15
2019-02-12T01:03:52.893Z,18.55
2019-02-12T01:04:58.430Z,18.37
2019-02-12T01:06:03.254Z,13.03
2019-02-12T01:07:09.014Z,19.35
2019-02-12T01:08:13.746Z,19.32
2019-02-12T01:09:18.351Z,17.35
2019-02-12T01:10:23.301Z,15.78
2019-02-12T01:11:28.274Z,15.32
2019-02-12T01:12:32.749Z,16.65
2019-02-12T01:13:37.985Z,14.33
2019-02-12T01:14:42.989Z,15.80
2019-02-12T01:15:48.090Z,15.83
2019-02-12T01:16:53.277Z,23.62
2019-02-12T01:17:59.865Z,13.30
2019-02-12T01:19:04.746Z,17.52
2019-02-12T01:20:11.599Z,19.55
2019-02-12T01:21:16.819Z,13.08
2019-02-12T01:22:21.511Z,19.10
2019-02-12T01:23:26.776Z,17.52
2019-02-12T01:24:32.350Z,14.40
2019-02-12T01:25:37.057Z,21.45
2019-02-12T01:26:42.362Z,18.15
2019-02-12T01:27:47.324Z,19.62
2019-02-12T01:28:52.243Z,20.60
2019-02-12T01:29:57.413Z,19.27
2019-02-12T01:31:02.415Z,21.70
2019-02-12T01:32:07.760Z,19.50
2019-02-12T01:33:12.716Z,14.98
2019-02-12T01:34:17.358Z,17.45
2019-02-12T01:35:22.894Z,20.27
2019-02-12T01:36:27.836Z,21.33
2019-02-12T01:37:32.418Z,15.83
2019-02-12T01:38:37.172Z,20.77
2019-02-12T01:39:42.409Z,14.47
2019-02-12T01:40:47.351Z,18.82
2019-02-12T01:41:52.307Z,19.20
2019-02-12T01:42:57.524Z,20.85
2019-02-12T01:44:02.133Z,14.18
2019-02-12T01:45:07.554Z,16.90
2019-02-12T01:46:12.430Z,15.93
2019-02-12T01:47:17.381Z,15.32
2019-02-12T01:48:22.413Z,12.43
2019-02-12T01:49:27.554Z,18.95
2019-02-12T01:50:32.710Z,23.50
2019-02-12T01:51:37.823Z,17.55
2019-02-12T01:52:42.560Z,18.95
2019-02-12T01:53:47.638Z,19.23
2019-02-12T01:54:52.945Z,17.73
2019-02-12T01:55:57.892Z,16.70
2019-02-12T01:57:02.497Z,18.52
2019-02-12T01:58:07.489Z,10.88
2019-02-12T01:59:12.327Z,15.68
2019-02-12T02:00:17.511Z,22.35
2019-02-12T02:01:22.880Z,19.12
2019-02-12T02:02:27.355Z,17.67
2019-02-12T02:03:32.579Z,16.60
2019-02-12T02:04:37.992Z,20.50
2019-02-12T02:05:43.093Z,16.90
2019-02-12T02:06:48.586Z,28.25
2019-02-12T02:07:54.130Z,20.23
2019-02-12T02:08:59.624Z,15.13
2019-02-12T02:10:04.983Z,22.45
2019-02-12T02:11:10.215Z,23.38
2019-02-12T02:12:15.447Z,20.32
2019-02-12T02:13:20.664Z,21.05
2019-02-12T02:14:25.625Z,15.72
2019-02-12T02:15:30.598Z,20.65
2019-02-12T02:16:35.765Z,21.07
2019-02-12T02:17:40.973Z,13.48
2019-02-12T02:18:46.256Z,14.75
2019-02-12T02:19:50.971Z,17.02
2019-02-12T02:20:55.931Z,17.90
2019-02-12T02:22:01.075Z,12.07
2019-02-12T02:23:06.321Z,22.77
2019-02-12T02:24:11.297Z,13.85
2019-02-12T02:25:16.122Z,19.27
2019-02-12T02:26:21.358Z,22.07
2019-02-12T02:27:26.605Z,20.55
2019-02-12T02:28:31.842Z,17.48
2019-02-12T02:29:37.353Z,18.73
2019-02-12T02:30:42.516Z,24.12
2019-02-12T02:31:48.027Z,19.95
2019-02-12T02:32:53.496Z,18.48
2019-02-12T02:33:58.744Z,20.35
2019-02-12T02:35:03.715Z,18.07
2019-02-12T02:36:08.599Z,17.87
2019-02-12T02:37:13.862Z,21.42
2019-02-12T02:38:18.822Z,18.52
2019-02-12T02:39:23.987Z,18.07
2019-02-12T02:40:29.500Z,14.68
2019-02-12T02:41:34.157Z,22.93
2019-02-12T02:42:39.391Z,21.00
2019-02-12T02:43:44.807Z,16.23
2019-02-12T02:44:50.354Z,20.23
2019-02-12T02:45:55.564Z,20.80
2019-02-12T02:47:00.722Z,13.68
2019-02-12T02:48:05.471Z,20.95
2019-02-12T02:49:10.073Z,20.77
2019-02-12T02:50:15.301Z,17.62
2019-02-12T02:51:20.360Z,19.17
2019-02-12T02:52:25.672Z,23.18
2019-02-12T02:53:30.943Z,17.30
2019-02-12T02:54:36.429Z,18.95
2019-02-12T02:55:41.181Z,23.67
2019-02-12T02:56:46.096Z,19.62
2019-02-12T02:57:51.026Z,20.57
2019-02-12T02:58:56.539Z,26.02
2019-02-12T03:00:01.539Z,20.82
2019-02-12T03:01:06.474Z,16.50
2019-02-12T03:02:11.113Z,29.60
2019-02-12T03:03:16.388Z,22.22
2019-02-12T03:04:21.874Z,17.73
2019-02-12T03:05:27.450Z,20.00
2019-02-12T03:06:32.812Z,16.30
2019-02-12T03:07:37.812Z,21.15
2019-02-12T03:08:43.145Z,20.97
2019-02-12T03:09:48.317Z,16.85
2019-02-12T03:10:52.989Z,17.60
2019-02-12T03:11:57.802Z,16.97
2019-02-12T03:13:03.249Z,21.95
2019-02-12T03:14:08.380Z,21.52
2019-02-12T03:15:13.078Z,21.87
2019-02-12T03:16:17.996Z,17.05
2019-02-12T03:17:23.205Z,18.65
2019-02-12T03:18:28.169Z,20.85
2019-02-12T03:19:33.371Z,27.32
2019-02-12T03:20:38.591Z,25.70
2019-02-12T03:21:43.549Z,19.30
2019-02-12T03:22:48.926Z,17.37
2019-02-12T03:23:53.364Z,20.88
2019-02-12T03:24:58.270Z,23.73
2019-02-12T03:26:03.390Z,22.60
2019-02-12T03:27:08.923Z,15.13
2019-02-12T03:28:13.863Z,17.27
2019-02-12T03:29:19.149Z,23.42
2019-02-12T03:30:24.309Z,24.40
2019-02-12T03:31:29.286Z,21.17
2019-02-12T03:32:34.021Z,21.33
2019-02-12T03:33:39.229Z,21.75
2019-02-12T03:34:44.289Z,21.57
2019-02-12T03:35:49.652Z,28.27
2019-02-12T03:36:55.170Z,22.55
2019-02-12T03:38:00.509Z,17.05
2019-02-12T03:39:05.607Z,20.75
2019-02-12T03:40:10.986Z,15.65
2019-02-12T03:41:16.221Z,20.45
2019-02-12T03:42:21.536Z,22.30
2019-02-12T03:43:26.502Z,24.60
2019-02-12T03:44:31.552Z,18.17
2019-02-12T03:45:36.569Z,22.15
2019-02-12T03:46:41.548Z,21.50
2019-02-12T03:47:46.830Z,23.62
2019-02-12T03:48:52.027Z,22.67
2019-02-12T03:49:57.282Z,17.12
2019-02-12T03:51:02.211Z,22.10
2019-02-12T03:52:12.810Z,22.32
2019-02-12T03:53:14.150Z,27.77
2019-02-12T03:54:19.326Z,23.60
2019-02-12T03:55:24.599Z,21.45
2019-02-12T03:56:30.130Z,21.05
2019-02-12T03:57:35.386Z,22.02
2019-02-12T03:58:40.338Z,25.92
2019-02-12T03:59:45.373Z,18.45
2019-02-12T04:00:50.729Z,19.37
2019-02-12T04:01:55.484Z,21.48
2019-02-12T04:03:07.741Z,22.02
2019-02-12T04:04:13.088Z,22.93
2019-02-12T04:05:17.741Z,22.10
2019-02-12T04:06:23.054Z,19.37
2019-02-12T04:07:28.302Z,21.02
2019-02-12T04:08:33.451Z,24.45
2019-02-12T04:09:38.615Z,22.75
2019-02-12T04:10:43.505Z,20.02
2019-02-12T04:11:48.629Z,24.52
2019-02-12T04:12:53.486Z,19.95
2019-02-12T04:13:59.106Z,22.10
2019-02-12T04:15:04.055Z,21.25
2019-02-12T04:16:09.132Z,17.92
2019-02-12T04:17:14.384Z,21.05
2019-02-12T04:18:19.607Z,22.52
2019-02-12T04:19:24.737Z,22.90
2019-02-12T04:20:29.691Z,23.07
2019-02-12T04:21:34.674Z,24.20
2019-02-12T04:22:39.824Z,21.35
2019-02-12T04:23:45.087Z,22.32
2019-02-12T04:24:50.317Z,20.75
2019-02-12T04:25:55.780Z,26.68
2019-02-12T04:27:00.919Z,24.40
2019-02-12T04:28:06.081Z,22.30
2019-02-12T04:29:11.601Z,21.37
2019-02-12T04:30:16.548Z,22.10
2019-02-12T04:31:22.077Z,20.85
2019-02-12T04:32:27.582Z,27.87
2019-02-12T04:33:32.756Z,19.35
2019-02-12T04:34:37.957Z,23.85
2019-02-12T04:35:43.317Z,27.60
2019-02-12T04:36:48.551Z,19.50
2019-02-12T04:37:53.941Z,20.68
2019-02-12T04:38:59.400Z,21.80
2019-02-12T04:40:04.124Z,25.90
2019-02-12T04:41:09.332Z,25.48
2019-02-12T04:42:14.579Z,19.52
2019-02-12T04:43:19.188Z,22.73
2019-02-12T04:44:24.723Z,23.15
2019-02-12T04:45:29.413Z,23.83
2019-02-12T04:46:34.625Z,19.12
2019-02-12T04:47:39.685Z,20.27
2019-02-12T04:48:44.181Z,27.15
2019-02-12T04:49:49.167Z,22.85
2019-02-12T04:50:54.189Z,24.92
2019-02-12T04:51:59.182Z,19.30
2019-02-12T04:53:04.134Z,21.57
2019-02-12T04:54:09.045Z,28.55
2019-02-12T04:55:13.669Z,26.68
2019-02-12T04:56:18.847Z,23.80
2019-02-12T04:57:23.529Z,25.10
2019-02-12T04:58:28.509Z,24.92
2019-02-12T04:59:33.182Z,18.12
2019-02-12T05:00:38.934Z,23.47
2019-02-12T05:01:44.089Z,22.98
2019-02-12T05:02:49.335Z,25.90
2019-02-12T05:03:54.595Z,23.45
2019-02-12T05:04:59.501Z,24.37
2019-02-12T05:06:04.186Z,22.75
2019-02-12T05:07:09.274Z,19.90
2019-02-12T05:08:14.238Z,28.27
2019-02-12T05:09:20.689Z,24.07
2019-02-12T05:10:26.125Z,25.10
2019-02-12T05:11:31.203Z,23.77
2019-02-12T05:12:35.836Z,22.75
2019-02-12T05:13:40.988Z,29.85
2019-02-12T05:14:46.043Z,26.73
2019-02-12T05:15:51.280Z,21.07
2019-02-12T05:16:56.498Z,24.92
2019-02-12T05:18:01.374Z,18.65
2019-02-12T05:19:06.849Z,24.30
2019-02-12T05:20:13.002Z,24.23
2019-02-12T05:21:17.678Z,24.30
2019-02-12T05:22:23.688Z,19.27
2019-02-12T05:23:28.943Z,22.15
2019-02-12T05:24:34.099Z,22.50
2019-02-12T05:25:39.669Z,20.90
2019-02-12T05:26:44.928Z,26.10
2019-02-12T05:27:50.186Z,24.98
2019-02-12T05:28:55.707Z,18.02
2019-02-12T05:30:00.855Z,26.90
2019-02-12T05:31:05.538Z,22.98
2019-02-12T05:32:09.907Z,23.50
2019-02-12T05:33:15.138Z,22.93
2019-02-12T05:34:19.646Z,23.35
2019-02-12T05:35:24.901Z,24.27
2019-02-12T05:36:30.418Z,26.05
2019-02-12T05:37:35.803Z,26.07
2019-02-12T05:38:41.106Z,21.87
2019-02-12T05:39:46.194Z,24.40
2019-02-12T05:40:51.320Z,20.05
2019-02-12T05:41:56.571Z,24.27
2019-02-12T05:43:01.824Z,21.77
2019-02-12T05:44:06.490Z,25.02
2019-02-12T05:45:12.028Z,23.15
2019-02-12T05:46:17.006Z,22.58
2019-02-12T05:47:21.972Z,20.43
2019-02-12T05:48:26.830Z,31.25
2019-02-12T05:49:32.073Z,28.60
2019-02-12T05:50:37.345Z,24.82
2019-02-12T05:51:42.384Z,24.57
2019-02-12T05:52:54.285Z,24.05
2019-02-12T05:53:54.872Z,21.27
2019-02-12T05:55:00.021Z,27.13
2019-02-12T05:56:05.208Z,26.68
2019-02-12T05:57:09.639Z,32.83
2019-02-12T05:58:14.728Z,23.50
2019-02-12T05:59:19.673Z,21.37
2019-02-12T06:00:27.051Z,21.30
2019-02-12T06:01:31.786Z,23.60
2019-02-12T06:02:37.337Z,17.98
2019-02-12T06:03:42.851Z,22.50
2019-02-12T06:04:47.999Z,20.68
2019-02-12T06:05:53.082Z,29.05
2019-02-12T06:06:58.014Z,22.93
2019-02-12T06:08:02.874Z,25.23
2019-02-12T06:09:07.917Z,24.00
2019-02-12T06:10:13.153Z,32.25
2019-02-12T06:11:18.356Z,26.97
2019-02-12T06:12:23.594Z,23.47
2019-02-12T06:13:28.525Z,22.77
2019-02-12T06:14:33.247Z,23.55
2019-02-12T06:15:38.442Z,24.75
2019-02-12T06:16:45.743Z,22.75
2019-02-12T06:17:51.181Z,18.50
2019-02-12T06:18:56.128Z,23.35
2019-02-12T06:20:01.405Z,22.67
2019-02-12T06:21:06.334Z,24.32
2019-02-12T06:22:11.924Z,28.75
2019-02-12T06:23:16.878Z,22.70
2019-02-12T06:24:22.202Z,24.57
2019-02-12T06:25:27.633Z,24.23
2019-02-12T06:26:33.086Z,32.78
2019-02-12T06:27:38.016Z,21.80
2019-02-12T06:28:42.952Z,25.52
2019-02-12T06:29:48.117Z,27.17
2019-02-12T06:30:53.354Z,21.65
2019-02-12T06:31:58.440Z,23.10
2019-02-12T06:33:07.702Z,21.65
2019-02-12T06:34:10.444Z,25.25
2019-02-12T06:35:16.717Z,21.82
2019-02-12T06:36:21.947Z,25.97
2019-02-12T06:37:27.210Z,28.52
2019-02-12T06:38:32.539Z,21.25
2019-02-12T06:39:37.786Z,24.45
2019-02-12T06:40:43.159Z,23.22
2019-02-12T06:41:47.587Z,23.00
2019-02-12T06:42:52.181Z,21.35
2019-02-12T06:43:57.131Z,24.45
2019-02-12T06:45:02.127Z,24.47
2019-02-12T06:46:07.104Z,27.90
2019-02-12T06:47:12.077Z,25.57
2019-02-12T06:48:16.692Z,27.70
2019-02-12T06:49:21.375Z,22.13
2019-02-12T06:50:26.336Z,28.00
2019-02-12T06:51:31.591Z,27.93
2019-02-12T06:52:36.576Z,23.85
2019-02-12T06:53:41.642Z,24.15
2019-02-12T06:54:46.724Z,24.47
2019-02-12T06:55:51.782Z,25.55
2019-02-12T06:56:57.304Z,26.73
2019-02-12T06:58:02.275Z,29.65
2019-02-12T06:59:07.832Z,23.62
2019-02-12T07:00:12.786Z,24.85
2019-02-12T07:01:18.370Z,27.27
2019-02-12T07:02:58.924Z,29.87
2019-02-12T07:04:13.615Z,20.92
2019-02-12T07:05:18.790Z,34.98
2019-02-12T07:06:38.482Z,27.98
2019-02-12T07:08:09.855Z,22.13
2019-02-12T07:09:25.376Z,26.57
2019-02-12T07:10:35.516Z,27.15
2019-02-12T07:12:29.332Z,30.10
2019-02-12T07:13:39.446Z,25.92
2019-02-12T07:15:12.042Z,26.55
2019-02-12T07:16:53.395Z,25.65
2019-02-12T07:18:33.966Z,22.98
2019-02-12T07:19:52.884Z,29.00
2019-02-12T07:21:53.784Z,31.65
2019-02-12T07:23:21.712Z,29.75
2019-02-12T07:24:58.264Z,27.32
2019-02-12T07:26:41.570Z,24.98
2019-02-12T07:28:11.555Z,30.95
2019-02-12T07:29:49.342Z,26.40
2019-02-12T07:31:41.028Z,29.67
2019-02-12T07:33:03.359Z,29.05
2019-02-12T07:34:48.175Z,28.83
2019-02-12T07:36:53.127Z,26.68
2019-02-12T07:38:37.059Z,25.45
2019-02-12T07:40:23.984Z,21.12
2019-02-12T07:41:40.202Z,22.20
2019-02-12T07:42:57.653Z,24.87
2019-02-12T07:44:16.510Z,28.27
2019-02-12T07:45:56.916Z,25.35
2019-02-12T07:47:36.619Z,17.45
2019-02-12T07:48:56.592Z,27.40
2019-02-12T07:50:54.274Z,25.72
2019-02-12T07:52:20.058Z,23.73
2019-02-12T07:54:08.990Z,23.62
2019-02-12T07:55:51.507Z,21.12
2019-02-12T07:57:17.605Z,21.77
2019-02-12T07:58:56.198Z,31.15
2019-02-12T08:00:33.693Z,26.52
2019-02-12T08:02:13.039Z,23.83
2019-02-12T08:03:46.483Z,26.05
2019-02-12T08:05:27.515Z,25.88
2019-02-12T08:07:05.819Z,26.02
2019-02-12T08:08:23.215Z,23.92
2019-02-12T08:10:02.208Z,26.57
2019-02-12T08:11:28.438Z,27.22
2019-02-12T08:12:48.386Z,29.40
2019-02-12T08:14:02.954Z,26.00
2019-02-12T08:15:23.261Z,27.50
2019-02-12T08:17:08.949Z,22.15
2019-02-12T08:18:45.358Z,20.90
2019-02-12T08:20:33.245Z,28.35
2019-02-12T08:22:10.711Z,24.12
2019-02-12T08:23:42.797Z,27.22
2019-02-12T08:25:08.638Z,25.82
2019-02-12T08:26:57.860Z,24.55
2019-02-12T08:28:27.579Z,26.93
2019-02-12T08:30:31.015Z,27.13
2019-02-12T08:31:57.401Z,26.23
2019-02-12T08:33:58.002Z,28.65
2019-02-12T08:35:38.476Z,28.15
2019-02-12T08:37:05.512Z,24.07
2019-02-12T08:38:33.777Z,22.87
2019-02-12T08:39:56.758Z,26.05
2019-02-12T08:41:48.158Z,23.50
2019-02-12T08:43:14.770Z,27.52
2019-02-12T08:44:59.533Z,27.17
2019-02-12T08:47:02.996Z,29.20
2019-02-12T08:48:50.935Z,24.82
2019-02-12T08:50:15.666Z,28.55
2019-02-12T08:52:00.183Z,25.70
2019-02-12T08:53:36.454Z,22.98
2019-02-12T08:55:24.664Z,24.52
2019-02-12T08:56:42.524Z,25.88
2019-02-12T08:58:11.584Z,27.22
2019-02-12T08:59:39.649Z,29.77
2019-02-12T09:01:28.309Z,28.20
2019-02-12T09:03:14.083Z,24.27
2019-02-12T09:04:53.212Z,25.27
2019-02-12T09:06:21.082Z,27.93
2019-02-12T09:07:39.588Z,28.52
2019-02-12T09:09:30.240Z,25.43
2019-02-12T09:10:56.668Z,22.25
2019-02-12T09:12:45.371Z,23.15
2019-02-12T09:14:01.294Z,27.82
2019-02-12T09:15:21.790Z,26.30
2019-02-12T09:17:12.763Z,23.95
2019-02-12T09:19:01.391Z,27.42
2019-02-12T09:20:46.595Z,25.27
2019-02-12T09:22:18.706Z,23.80
2019-02-12T09:24:15.872Z,26.30
2019-02-12T09:25:41.348Z,19.40
2019-02-12T09:27:33.462Z,23.42
2019-02-12T09:29:07.686Z,27.73
2019-02-12T09:30:55.033Z,28.35
2019-02-12T09:32:55.961Z,25.43
2019-02-12T09:34:46.881Z,26.33
2019-02-12T09:36:20.835Z,28.00
2019-02-12T09:37:45.460Z,26.25
2019-02-12T09:39:26.685Z,27.62
2019-02-12T09:41:14.403Z,30.62
2019-02-12T09:42:54.234Z,25.65
2019-02-12T09:44:39.491Z,28.67
2019-02-12T09:46:07.288Z,23.47
2019-02-12T09:47:48.134Z,28.27
2019-02-12T09:49:13.602Z,23.57
2019-02-12T09:51:11.305Z,26.42
2019-02-12T09:52:43.069Z,24.25
2019-02-12T09:54:08.473Z,26.85
2019-02-12T09:55:27.347Z,25.65
2019-02-12T09:57:22.573Z,23.05
2019-02-12T09:59:04.667Z,22.67
2019-02-12T10:00:38.718Z,24.63
2019-02-12T10:02:28.154Z,26.80
2019-02-12T10:04:10.020Z,19.90
2019-02-12T10:05:33.399Z,20.62
2019-02-12T10:07:01.698Z,27.02
2019-02-12T10:09:02.608Z,22.07
2019-02-12T10:10:36.987Z,26.62
2019-02-12T10:12:09.117Z,25.30
2019-02-12T10:13:38.965Z,23.70
2019-02-12T10:15:10.774Z,19.37
2019-02-12T10:16:26.045Z,29.90
2019-02-12T10:18:03.916Z,21.70
2019-02-12T10:19:23.826Z,25.55
2019-02-12T10:20:56.102Z,26.80
2019-02-12T10:22:19.847Z,23.02
2019-02-12T10:23:50.699Z,25.37
2019-02-12T10:25:20.695Z,24.63
2019-02-12T10:26:25.505Z,25.88
2019-02-12T10:28:02.420Z,21.30
2019-02-12T10:29:27.488Z,26.93
2019-02-12T10:30:55.664Z,25.10
2019-02-12T10:32:08.263Z,23.75
2019-02-12T10:33:05.815Z,22.65
2019-02-12T10:34:10.717Z,25.65
2019-02-12T10:35:16.030Z,25.65
2019-02-12T10:36:21.301Z,24.67
2019-02-12T10:37:26.248Z,25.40
2019-02-12T10:38:31.795Z,26.15
2019-02-12T10:39:36.482Z,28.30
2019-02-12T10:40:41.795Z,22.00
2019-02-12T10:41:47.065Z,28.57
2019-02-12T10:42:52.628Z,24.40
2019-02-12T10:43:57.861Z,26.60
2019-02-12T10:45:03.107Z,24.05
2019-02-12T10:46:08.371Z,26.68
2019-02-12T10:47:13.332Z,25.68
2019-02-12T10:48:18.304Z,23.02
2019-02-12T10:49:23.795Z,24.37
2019-02-12T10:50:29.027Z,23.30
2019-02-12T10:51:33.960Z,28.00
2019-02-12T10:52:39.569Z,26.10
2019-02-12T10:53:44.575Z,25.95
2019-02-12T10:54:48.996Z,23.60
2019-02-12T10:55:54.265Z,26.50
2019-02-12T10:56:59.796Z,22.80
2019-02-12T10:58:04.229Z,23.20
2019-02-12T10:59:08.661Z,21.23
2019-02-12T11:00:14.474Z,25.82
2019-02-12T11:01:19.143Z,22.55
2019-02-12T11:02:24.375Z,23.77
2019-02-12T11:03:29.678Z,23.35
2019-02-12T11:04:34.694Z,22.87
2019-02-12T11:05:39.717Z,22.07
2019-02-12T11:06:45.323Z,27.35
2019-02-12T11:07:50.552Z,23.10
2019-02-12T11:08:55.868Z,26.07
2019-02-12T11:10:01.401Z,22.95
2019-02-12T11:11:06.357Z,20.75
2019-02-12T11:12:11.222Z,21.87
2019-02-12T11:13:16.883Z,24.82
2019-02-12T11:14:21.919Z,22.07
2019-02-12T11:15:26.737Z,21.05
2019-02-12T11:16:32.315Z,24.32
2019-02-12T11:17:37.234Z,24.50
2019-02-12T11:18:42.183Z,20.52
2019-02-12T11:19:47.139Z,19.92
2019-02-12T11:20:52.699Z,24.10
2019-02-12T11:21:57.923Z,21.65
2019-02-12T11:23:03.139Z,24.12
2019-02-12T11:24:08.581Z,20.65
2019-02-12T11:25:14.081Z,23.10
2019-02-12T11:26:19.321Z,21.30
2019-02-12T11:27:24.794Z,21.00
2019-02-12T11:28:29.452Z,18.12
2019-02-12T11:29:34.398Z,19.55
2019-02-12T11:30:39.536Z,22.05
2019-02-12T11:31:47.322Z,18.50
2019-02-12T11:32:52.892Z,19.25
2019-02-12T11:33:57.958Z,22.42
2019-02-12T11:35:02.834Z,22.25
2019-02-12T11:36:07.974Z,22.95
2019-02-12T11:37:12.964Z,17.25
2019-02-12T11:38:18.216Z,23.55
2019-02-12T11:39:22.895Z,19.15
2019-02-12T11:40:28.148Z,20.92
2019-02-12T11:41:33.349Z,20.25
2019-02-12T11:42:38.861Z,19.07
2019-02-12T11:43:44.412Z,17.42
2019-02-12T11:44:49.669Z,17.32
2019-02-12T11:45:54.722Z,20.82
2019-02-12T11:46:59.648Z,18.25
2019-02-12T11:48:04.611Z,17.45
2019-02-12T11:49:09.846Z,20.55
2019-02-12T11:50:15.086Z,20.50
2019-02-12T11:51:20.340Z,18.23
2019-02-12T11:52:25.458Z,16.75
2019-02-12T11:53:30.296Z,21.07
2019-02-12T11:54:43.430Z,17.75
2019-02-12T11:55:42.778Z,20.60
2019-02-12T11:56:48.005Z,16.85
2019-02-12T11:57:53.142Z,17.05
2019-02-12T11:58:58.386Z,17.00
2019-02-12T12:00:03.112Z,18.57
2019-02-12T12:01:10.436Z,18.62
2019-02-12T12:02:15.569Z,17.50
2019-02-12T12:03:20.489Z,22.65
2019-02-12T12:04:25.720Z,17.62
2019-02-12T12:05:30.325Z,18.27
2019-02-12T12:06:35.571Z,19.00
2019-02-12T12:07:40.694Z,22.10
2019-02-12T12:08:45.611Z,20.25
2019-02-12T12:09:50.852Z,22.13
2019-02-12T12:10:55.827Z,20.68
2019-02-12T12:12:00.433Z,19.02
2019-02-12T12:13:05.134Z,20.95
2019-02-12T12:14:10.189Z,20.92
2019-02-12T12:15:14.966Z,19.02
2019-02-12T12:16:19.920Z,23.38
2019-02-12T12:17:24.839Z,19.30
2019-02-12T12:18:30.098Z,16.75
2019-02-12T12:19:34.957Z,22.13
2019-02-12T12:20:40.439Z,18.10
2019-02-12T12:21:45.809Z,18.17
2019-02-12T12:22:51.346Z,18.02
2019-02-12T12:23:56.597Z,20.72
2019-02-12T12:25:01.285Z,15.20
2019-02-12T12:26:06.553Z,17.82
2019-02-12T12:27:11.792Z,16.75
2019-02-12T12:28:16.466Z,17.95
2019-02-12T12:29:21.420Z,24.37
2019-02-12T12:30:26.103Z,16.95
2019-02-12T12:31:31.385Z,21.57
2019-02-12T12:32:36.597Z,18.15
2019-02-12T12:33:41.590Z,20.70
2019-02-12T12:34:46.609Z,20.17
2019-02-12T12:35:51.041Z,16.07
2019-02-12T12:36:55.914Z,15.70
2019-02-12T12:38:01.178Z,20.10
2019-02-12T12:39:06.907Z,18.37
2019-02-12T12:40:11.862Z,19.10
2019-02-12T12:41:17.014Z,18.32
2019-02-12T12:42:23.154Z,19.42
2019-02-12T12:43:29.779Z,17.75
2019-02-12T12:44:34.646Z,14.68
2019-02-12T12:45:39.919Z,14.55
2019-02-12T12:46:45.518Z,24.82
2019-02-12T12:47:50.483Z,18.50
2019-02-12T12:48:55.697Z,19.60
2019-02-12T12:50:00.660Z,15.60
2019-02-12T12:51:05.470Z,20.05
2019-02-12T12:52:10.400Z,19.23
2019-02-12T12:53:15.296Z,17.55
2019-02-12T12:54:20.210Z,17.77
2019-02-12T12:55:25.506Z,14.63
2019-02-12T12:56:30.094Z,14.90
2019-02-12T12:57:41.651Z,16.57
2019-02-12T12:58:41.781Z,17.30
2019-02-12T12:59:46.680Z,19.70
2019-02-12T13:00:52.167Z,14.68
2019-02-12T13:01:57.332Z,19.70
2019-02-12T13:03:01.952Z,18.95
2019-02-12T13:04:06.991Z,17.52
2019-02-12T13:05:11.976Z,14.95
2019-02-12T13:06:16.909Z,14.40
2019-02-12T13:07:21.755Z,18.80
2019-02-12T13:08:26.705Z,19.50
2019-02-12T13:09:31.636Z,14.83
2019-02-12T13:10:36.828Z,14.55
2019-02-12T13:11:42.451Z,15.55
2019-02-12T13:12:47.674Z,15.05
2019-02-12T13:13:52.687Z,16.07
2019-02-12T13:14:57.711Z,16.00
2019-02-12T13:16:03.015Z,15.75
2019-02-12T13:17:08.417Z,17.37
2019-02-12T13:18:13.394Z,12.68
2019-02-12T13:19:17.967Z,14.83
2019-02-12T13:20:23.479Z,13.90
2019-02-12T13:21:28.731Z,18.70
2019-02-12T13:22:34.385Z,17.27
2019-02-12T13:23:39.370Z,16.25
2019-02-12T13:24:45.789Z,15.88
2019-02-12T13:25:51.232Z,16.05
2019-02-12T13:26:56.473Z,13.10
2019-02-12T13:28:01.322Z,17.12
2019-02-12T13:29:06.549Z,16.10
2019-02-12T13:30:14.186Z,14.95
2019-02-12T13:31:19.351Z,13.80
2019-02-12T13:32:24.289Z,13.55
2019-02-12T13:33:29.139Z,11.28
2019-02-12T13:34:34.682Z,13.40
2019-02-12T13:35:39.498Z,12.98
2019-02-12T13:36:44.516Z,13.03
2019-02-12T13:37:49.756Z,11.08
2019-02-12T13:38:54.871Z,13.10
2019-02-12T13:40:00.026Z,11.60
2019-02-12T13:41:05.021Z,12.93
2019-02-12T13:42:09.690Z,10.90
2019-02-12T13:43:14.812Z,14.28
2019-02-12T13:44:20.337Z,10.60
2019-02-12T13:45:25.182Z,17.05
2019-02-12T13:46:29.659Z,10.98
2019-02-12T13:47:34.528Z,12.20
2019-02-12T13:48:39.481Z,11.30
2019-02-12T13:49:44.809Z,14.45
2019-02-12T13:50:50.062Z,13.98
2019-02-12T13:51:55.014Z,13.18
2019-02-12T13:53:00.342Z,16.37
2019-02-12T13:54:05.293Z,10.55
2019-02-12T13:55:16.919Z,12.60
2019-02-12T13:56:17.390Z,15.35
2019-02-12T13:57:22.642Z,15.43
2019-02-12T13:58:27.630Z,13.95
2019-02-12T13:59:33.605Z,14.20
2019-02-12T14:00:38.952Z,12.18
2019-02-12T14:01:43.980Z,16.32
2019-02-12T14:02:49.449Z,11.22
2019-02-12T14:03:54.580Z,10.53
2019-02-12T14:04:59.558Z,11.75
2019-02-12T14:06:04.084Z,12.25
2019-02-12T14:07:09.562Z,13.18
2019-02-12T14:08:14.222Z,12.80
2019-02-12T14:09:19.151Z,13.18
2019-02-12T14:10:24.015Z,10.50
2019-02-12T14:11:29.337Z,9.38
2019-02-12T14:12:34.652Z,12.93
2019-02-12T14:13:44.648Z,11.88
2019-02-12T14:14:50.330Z,16.23
2019-02-12T14:15:55.314Z,11.53
2019-02-12T14:17:00.994Z,14.78
2019-02-12T14:18:06.892Z,11.85
2019-02-12T14:19:12.194Z,10.32
2019-02-12T14:20:16.922Z,9.23
2019-02-12T14:21:21.542Z,13.58
2019-02-12T14:22:26.954Z,11.28
2019-02-12T14:23:32.563Z,12.70
2019-02-12T14:24:37.365Z,14.85
2019-02-12T14:25:45.026Z,10.93
2019-02-12T14:26:50.535Z,14.00
2019-02-12T14:27:55.773Z,10.93
2019-02-12T14:29:01.277Z,17.00
2019-02-12T14:30:06.187Z,16.70
2019-02-12T14:31:11.186Z,14.60
2019-02-12T14:32:15.841Z,13.95
2019-02-12T14:33:20.763Z,13.00
2019-02-12T14:34:25.715Z,10.63
2019-02-12T14:35:30.958Z,18.73
2019-02-12T14:36:35.636Z,13.62
2019-02-12T14:37:40.667Z,12.98
2019-02-12T14:38:45.576Z,11.88
2019-02-12T14:39:50.280Z,13.78
2019-02-12T14:40:55.492Z,10.18
2019-02-12T14:42:00.500Z,14.80
2019-02-12T14:43:13.683Z,11.55
2019-02-12T14:44:12.127Z,12.85
2019-02-12T14:45:16.579Z,14.65
2019-02-12T14:46:21.553Z,12.70
2019-02-12T14:47:26.556Z,15.98
2019-02-12T14:48:31.637Z,13.25
2019-02-12T14:49:36.810Z,10.70
2019-02-12T14:50:42.150Z,9.93
2019-02-12T14:51:47.315Z,10.10
2019-02-12T14:52:51.945Z,13.10
2019-02-12T14:53:56.735Z,14.03
2019-02-12T14:55:01.899Z,15.53
2019-02-12T14:56:11.403Z,11.18
2019-02-12T14:57:13.974Z,11.90
2019-02-12T14:58:19.204Z,12.78
2019-02-12T14:59:24.446Z,14.07
2019-02-12T15:00:29.039Z,12.60
2019-02-12T15:01:34.079Z,13.05
2019-02-12T15:02:39.350Z,11.85
2019-02-12T15:03:44.701Z,14.90
2019-02-12T15:04:49.562Z,12.88
2019-02-12T15:05:54.981Z,14.25